sensor_id;sensor_type;location;lat;lon;timestamp;P1;durP1;ratioP1;P2;durP2;ratioP2
76409;SDS011;65238;42.662;23.280;2023-04-08T00:00:31;47.83;;;25.17;;
76409;SDS011;65238;42.662;23.280;2023-04-08T00:02:57;41.05;;;24.08;;
76409;SDS011;65238;42.662;23.280;2023-04-08T00:05:22;40.20;;;24.85;;
76409;SDS011;65238;42.662;23.280;2023-04-08T00:07:47;41.28;;;24.00;;
76409;SDS011;65238;42.662;23.280;2023-04-08T00:10:13;39.88;;;24.45;;
76409;SDS011;65238;42.662;23.280;2023-04-08T00:12:38;44.85;;;24.75;;
76409;SDS011;65238;42.662;23.280;2023-04-08T00:15:04;48.38;;;25.42;;
76409;SDS011;65238;42.662;23.280;2023-04-08T00:17:30;39.70;;;23.85;;
76409;SDS011;65238;42.662;23.280;2023-04-08T00:19:55;44.03;;;24.63;;
76409;SDS011;65238;42.662;23.280;2023-04-08T00:22:21;46.90;;;25.02;;
76409;SDS011;65238;42.662;23.280;2023-04-08T00:24:46;43.80;;;25.77;;
76409;SDS011;65238;42.662;23.280;2023-04-08T00:27:12;41.97;;;25.33;;
76409;SDS011;65238;42.662;23.280;2023-04-08T00:29:37;41.88;;;25.38;;
76409;SDS011;65238;42.662;23.280;2023-04-08T00:32:02;43.47;;;25.35;;
76409;SDS011;65238;42.662;23.280;2023-04-08T00:34:28;46.70;;;25.98;;
76409;SDS011;65238;42.662;23.280;2023-04-08T00:36:54;44.65;;;27.02;;
76409;SDS011;65238;42.662;23.280;2023-04-08T00:39:20;47.03;;;26.45;;
76409;SDS011;65238;42.662;23.280;2023-04-08T00:41:45;47.10;;;25.13;;
76409;SDS011;65238;42.662;23.280;2023-04-08T00:44:11;43.00;;;24.90;;
76409;SDS011;65238;42.662;23.280;2023-04-08T00:46:37;40.45;;;24.42;;
76409;SDS011;65238;42.662;23.280;2023-04-08T00:49:04;43.72;;;24.25;;
76409;SDS011;65238;42.662;23.280;2023-04-08T00:51:31;40.20;;;24.63;;
76409;SDS011;65238;42.662;23.280;2023-04-08T00:53:57;39.03;;;24.17;;
76409;SDS011;65238;42.662;23.280;2023-04-08T00:56:24;40.25;;;22.55;;
76409;SDS011;65238;42.662;23.280;2023-04-08T00:58:50;38.72;;;23.25;;
76409;SDS011;65238;42.662;23.280;2023-04-08T01:04:18;39.80;;;23.30;;
76409;SDS011;65238;42.662;23.280;2023-04-08T01:07:21;38.60;;;23.35;;
76409;SDS011;65238;42.662;23.280;2023-04-08T01:09:55;36.25;;;22.10;;
76409;SDS011;65238;42.662;23.280;2023-04-08T01:12:26;36.35;;;21.70;;
76409;SDS011;65238;42.662;23.280;2023-04-08T01:14:59;41.17;;;23.05;;
76409;SDS011;65238;42.662;23.280;2023-04-08T01:17:32;43.70;;;22.52;;
76409;SDS011;65238;42.662;23.280;2023-04-08T01:19:59;40.47;;;22.58;;
76409;SDS011;65238;42.662;23.280;2023-04-08T01:22:34;40.40;;;23.45;;
76409;SDS011;65238;42.662;23.280;2023-04-08T01:25:19;41.03;;;23.73;;
76409;SDS011;65238;42.662;23.280;2023-04-08T01:27:47;41.10;;;23.95;;
76409;SDS011;65238;42.662;23.280;2023-04-08T01:30:12;43.45;;;24.95;;
76409;SDS011;65238;42.662;23.280;2023-04-08T01:32:38;49.42;;;26.45;;
76409;SDS011;65238;42.662;23.280;2023-04-08T01:35:06;46.03;;;26.33;;
76409;SDS011;65238;42.662;23.280;2023-04-08T01:37:33;43.20;;;27.75;;
76409;SDS011;65238;42.662;23.280;2023-04-08T01:39:59;43.83;;;26.33;;
76409;SDS011;65238;42.662;23.280;2023-04-08T01:42:26;43.92;;;26.75;;
76409;SDS011;65238;42.662;23.280;2023-04-08T01:44:54;47.58;;;26.67;;
76409;SDS011;65238;42.662;23.280;2023-04-08T01:47:20;46.05;;;26.10;;
76409;SDS011;65238;42.662;23.280;2023-04-08T01:49:46;44.13;;;25.23;;
76409;SDS011;65238;42.662;23.280;2023-04-08T01:52:12;44.20;;;25.85;;
76409;SDS011;65238;42.662;23.280;2023-04-08T01:54:40;40.33;;;24.58;;
76409;SDS011;65238;42.662;23.280;2023-04-08T01:57:06;42.35;;;23.52;;
76409;SDS011;65238;42.662;23.280;2023-04-08T01:59:33;38.75;;;23.48;;
76409;SDS011;65238;42.662;23.280;2023-04-08T02:02:00;40.92;;;21.77;;
76409;SDS011;65238;42.662;23.280;2023-04-08T02:04:26;35.85;;;22.85;;
76409;SDS011;65238;42.662;23.280;2023-04-08T02:06:52;43.10;;;23.92;;
76409;SDS011;65238;42.662;23.280;2023-04-08T02:09:17;39.63;;;23.35;;
76409;SDS011;65238;42.662;23.280;2023-04-08T02:11:42;47.00;;;22.88;;
76409;SDS011;65238;42.662;23.280;2023-04-08T02:14:08;38.22;;;22.48;;
76409;SDS011;65238;42.662;23.280;2023-04-08T02:16:44;43.63;;;24.20;;
76409;SDS011;65238;42.662;23.280;2023-04-08T02:19:17;44.90;;;26.73;;
76409;SDS011;65238;42.662;23.280;2023-04-08T02:21:46;47.70;;;27.65;;
76409;SDS011;65238;42.662;23.280;2023-04-08T02:24:14;49.47;;;27.40;;
76409;SDS011;65238;42.662;23.280;2023-04-08T02:26:41;47.80;;;27.15;;
76409;SDS011;65238;42.662;23.280;2023-04-08T02:29:10;44.55;;;27.00;;
76409;SDS011;65238;42.662;23.280;2023-04-08T02:31:37;48.95;;;27.60;;
76409;SDS011;65238;42.662;23.280;2023-04-08T02:34:03;48.88;;;26.67;;
76409;SDS011;65238;42.662;23.280;2023-04-08T02:36:31;44.35;;;25.92;;
76409;SDS011;65238;42.662;23.280;2023-04-08T02:38:58;46.22;;;27.83;;
76409;SDS011;65238;42.662;23.280;2023-04-08T02:41:26;50.97;;;29.17;;
76409;SDS011;65238;42.662;23.280;2023-04-08T02:43:52;46.63;;;28.33;;
76409;SDS011;65238;42.662;23.280;2023-04-08T02:46:19;53.08;;;30.15;;
76409;SDS011;65238;42.662;23.280;2023-04-08T02:48:45;51.38;;;30.00;;
76409;SDS011;65238;42.662;23.280;2023-04-08T02:51:10;84.03;;;43.35;;
76409;SDS011;65238;42.662;23.280;2023-04-08T02:53:35;68.88;;;35.72;;
76409;SDS011;65238;42.662;23.280;2023-04-08T02:56:01;65.68;;;32.58;;
76409;SDS011;65238;42.662;23.280;2023-04-08T02:58:27;55.53;;;29.75;;
76409;SDS011;65238;42.662;23.280;2023-04-08T03:00:53;54.70;;;30.67;;
76409;SDS011;65238;42.662;23.280;2023-04-08T03:03:19;54.22;;;30.08;;
76409;SDS011;65238;42.662;23.280;2023-04-08T03:05:51;54.95;;;31.52;;
76409;SDS011;65238;42.662;23.280;2023-04-08T03:08:16;50.25;;;29.65;;
76409;SDS011;65238;42.662;23.280;2023-04-08T03:10:41;56.85;;;29.88;;
76409;SDS011;65238;42.662;23.280;2023-04-08T03:13:07;55.38;;;30.75;;
76409;SDS011;65238;42.662;23.280;2023-04-08T03:15:32;60.50;;;31.95;;
76409;SDS011;65238;42.662;23.280;2023-04-08T03:17:58;61.55;;;32.35;;
76409;SDS011;65238;42.662;23.280;2023-04-08T03:20:23;60.65;;;31.73;;
76409;SDS011;65238;42.662;23.280;2023-04-08T03:22:49;61.40;;;31.20;;
76409;SDS011;65238;42.662;23.280;2023-04-08T03:25:14;58.58;;;31.48;;
76409;SDS011;65238;42.662;23.280;2023-04-08T03:27:40;60.38;;;32.10;;
76409;SDS011;65238;42.662;23.280;2023-04-08T03:30:05;51.58;;;28.80;;
76409;SDS011;65238;42.662;23.280;2023-04-08T03:32:31;57.67;;;31.52;;
76409;SDS011;65238;42.662;23.280;2023-04-08T03:34:57;53.60;;;28.95;;
76409;SDS011;65238;42.662;23.280;2023-04-08T03:37:22;50.65;;;29.13;;
76409;SDS011;65238;42.662;23.280;2023-04-08T03:39:48;53.42;;;29.38;;
76409;SDS011;65238;42.662;23.280;2023-04-08T03:42:13;48.25;;;27.98;;
76409;SDS011;65238;42.662;23.280;2023-04-08T03:44:38;52.53;;;29.05;;
76409;SDS011;65238;42.662;23.280;2023-04-08T03:47:04;52.33;;;28.55;;
76409;SDS011;65238;42.662;23.280;2023-04-08T03:49:29;49.92;;;28.83;;
76409;SDS011;65238;42.662;23.280;2023-04-08T03:51:54;53.58;;;30.08;;
76409;SDS011;65238;42.662;23.280;2023-04-08T03:54:20;51.88;;;29.92;;
76409;SDS011;65238;42.662;23.280;2023-04-08T03:56:46;53.42;;;30.30;;
76409;SDS011;65238;42.662;23.280;2023-04-08T03:59:11;50.53;;;30.10;;
76409;SDS011;65238;42.662;23.280;2023-04-08T04:01:36;52.05;;;29.00;;
76409;SDS011;65238;42.662;23.280;2023-04-08T04:04:02;53.15;;;30.48;;
76409;SDS011;65238;42.662;23.280;2023-04-08T04:06:27;53.53;;;29.55;;
76409;SDS011;65238;42.662;23.280;2023-04-08T04:08:53;53.42;;;29.55;;
76409;SDS011;65238;42.662;23.280;2023-04-08T04:11:21;53.05;;;30.25;;
76409;SDS011;65238;42.662;23.280;2023-04-08T04:13:47;56.10;;;30.55;;
76409;SDS011;65238;42.662;23.280;2023-04-08T04:16:12;52.92;;;31.20;;
76409;SDS011;65238;42.662;23.280;2023-04-08T04:18:38;54.85;;;31.77;;
76409;SDS011;65238;42.662;23.280;2023-04-08T04:21:06;55.97;;;30.73;;
76409;SDS011;65238;42.662;23.280;2023-04-08T04:23:32;58.08;;;31.95;;
76409;SDS011;65238;42.662;23.280;2023-04-08T04:25:58;52.42;;;29.98;;
76409;SDS011;65238;42.662;23.280;2023-04-08T04:28:23;51.78;;;30.23;;
76409;SDS011;65238;42.662;23.280;2023-04-08T04:30:49;50.38;;;29.23;;
76409;SDS011;65238;42.662;23.280;2023-04-08T04:33:14;51.58;;;29.08;;
76409;SDS011;65238;42.662;23.280;2023-04-08T04:35:39;50.33;;;28.73;;
76409;SDS011;65238;42.662;23.280;2023-04-08T04:38:05;51.33;;;29.05;;
76409;SDS011;65238;42.662;23.280;2023-04-08T04:40:35;52.88;;;28.35;;
76409;SDS011;65238;42.662;23.280;2023-04-08T04:43:01;52.38;;;28.48;;
76409;SDS011;65238;42.662;23.280;2023-04-08T04:45:26;53.47;;;30.90;;
76409;SDS011;65238;42.662;23.280;2023-04-08T04:47:51;52.60;;;28.63;;
76409;SDS011;65238;42.662;23.280;2023-04-08T04:50:17;55.75;;;31.30;;
76409;SDS011;65238;42.662;23.280;2023-04-08T04:52:42;49.72;;;28.88;;
76409;SDS011;65238;42.662;23.280;2023-04-08T04:55:08;47.83;;;27.38;;
76409;SDS011;65238;42.662;23.280;2023-04-08T04:57:33;50.15;;;29.17;;
76409;SDS011;65238;42.662;23.280;2023-04-08T04:59:59;47.20;;;28.50;;
76409;SDS011;65238;42.662;23.280;2023-04-08T05:02:25;47.97;;;28.75;;
76409;SDS011;65238;42.662;23.280;2023-04-08T05:04:50;55.33;;;31.23;;
76409;SDS011;65238;42.662;23.280;2023-04-08T05:07:17;54.38;;;30.83;;
76409;SDS011;65238;42.662;23.280;2023-04-08T05:09:43;54.28;;;30.63;;
76409;SDS011;65238;42.662;23.280;2023-04-08T05:12:09;55.60;;;30.38;;
76409;SDS011;65238;42.662;23.280;2023-04-08T05:14:35;56.35;;;30.42;;
76409;SDS011;65238;42.662;23.280;2023-04-08T05:17:00;52.63;;;30.27;;
76409;SDS011;65238;42.662;23.280;2023-04-08T05:19:25;55.10;;;29.55;;
76409;SDS011;65238;42.662;23.280;2023-04-08T05:21:51;55.97;;;30.42;;
76409;SDS011;65238;42.662;23.280;2023-04-08T05:24:16;59.58;;;30.35;;
76409;SDS011;65238;42.662;23.280;2023-04-08T05:26:41;62.33;;;33.63;;
76409;SDS011;65238;42.662;23.280;2023-04-08T05:29:07;59.65;;;31.83;;
76409;SDS011;65238;42.662;23.280;2023-04-08T05:31:32;54.42;;;30.38;;
76409;SDS011;65238;42.662;23.280;2023-04-08T05:33:58;54.92;;;31.02;;
76409;SDS011;65238;42.662;23.280;2023-04-08T05:36:23;54.55;;;31.42;;
76409;SDS011;65238;42.662;23.280;2023-04-08T05:38:50;56.75;;;32.42;;
76409;SDS011;65238;42.662;23.280;2023-04-08T05:41:15;57.65;;;32.15;;
76409;SDS011;65238;42.662;23.280;2023-04-08T05:43:41;58.15;;;32.72;;
76409;SDS011;65238;42.662;23.280;2023-04-08T05:46:07;51.17;;;31.05;;
76409;SDS011;65238;42.662;23.280;2023-04-08T05:48:33;55.08;;;30.42;;
76409;SDS011;65238;42.662;23.280;2023-04-08T05:50:58;65.25;;;33.35;;
76409;SDS011;65238;42.662;23.280;2023-04-08T05:53:24;49.05;;;29.42;;
76409;SDS011;65238;42.662;23.280;2023-04-08T05:55:50;56.15;;;31.77;;
76409;SDS011;65238;42.662;23.280;2023-04-08T05:58:15;55.00;;;32.10;;
76409;SDS011;65238;42.662;23.280;2023-04-08T06:00:41;56.95;;;32.20;;
76409;SDS011;65238;42.662;23.280;2023-04-08T06:03:06;59.33;;;32.88;;
76409;SDS011;65238;42.662;23.280;2023-04-08T06:05:32;64.75;;;33.88;;
76409;SDS011;65238;42.662;23.280;2023-04-08T06:07:57;57.55;;;33.30;;
76409;SDS011;65238;42.662;23.280;2023-04-08T06:10:22;57.65;;;32.25;;
76409;SDS011;65238;42.662;23.280;2023-04-08T06:12:48;57.45;;;32.25;;
76409;SDS011;65238;42.662;23.280;2023-04-08T06:15:13;51.45;;;29.77;;
76409;SDS011;65238;42.662;23.280;2023-04-08T06:17:39;56.85;;;31.02;;
76409;SDS011;65238;42.662;23.280;2023-04-08T06:20:05;56.20;;;31.17;;
76409;SDS011;65238;42.662;23.280;2023-04-08T06:22:31;55.30;;;30.80;;
76409;SDS011;65238;42.662;23.280;2023-04-08T06:24:56;58.58;;;32.60;;
76409;SDS011;65238;42.662;23.280;2023-04-08T06:27:22;56.08;;;32.35;;
76409;SDS011;65238;42.662;23.280;2023-04-08T06:29:47;54.97;;;30.77;;
76409;SDS011;65238;42.662;23.280;2023-04-08T06:32:13;51.70;;;31.48;;
76409;SDS011;65238;42.662;23.280;2023-04-08T06:34:38;49.72;;;29.52;;
76409;SDS011;65238;42.662;23.280;2023-04-08T06:37:05;57.70;;;30.20;;
76409;SDS011;65238;42.662;23.280;2023-04-08T06:39:30;51.60;;;31.23;;
76409;SDS011;65238;42.662;23.280;2023-04-08T06:41:56;55.08;;;30.58;;
76409;SDS011;65238;42.662;23.280;2023-04-08T06:44:23;53.50;;;31.95;;
76409;SDS011;65238;42.662;23.280;2023-04-08T06:46:49;59.25;;;31.08;;
76409;SDS011;65238;42.662;23.280;2023-04-08T06:49:14;49.85;;;29.33;;
76409;SDS011;65238;42.662;23.280;2023-04-08T06:51:40;53.15;;;29.42;;
76409;SDS011;65238;42.662;23.280;2023-04-08T06:54:05;48.03;;;26.83;;
76409;SDS011;65238;42.662;23.280;2023-04-08T06:56:31;47.75;;;27.63;;
76409;SDS011;65238;42.662;23.280;2023-04-08T06:58:56;49.53;;;28.55;;
76409;SDS011;65238;42.662;23.280;2023-04-08T07:01:22;47.03;;;26.83;;
76409;SDS011;65238;42.662;23.280;2023-04-08T07:03:47;45.15;;;26.50;;
76409;SDS011;65238;42.662;23.280;2023-04-08T07:06:13;45.63;;;27.30;;
76409;SDS011;65238;42.662;23.280;2023-04-08T07:08:38;44.13;;;25.27;;
76409;SDS011;65238;42.662;23.280;2023-04-08T07:11:04;40.97;;;23.50;;
76409;SDS011;65238;42.662;23.280;2023-04-08T07:13:29;41.42;;;23.92;;
76409;SDS011;65238;42.662;23.280;2023-04-08T07:15:55;40.88;;;22.27;;
76409;SDS011;65238;42.662;23.280;2023-04-08T07:18:20;31.27;;;17.27;;
76409;SDS011;65238;42.662;23.280;2023-04-08T07:20:50;28.15;;;17.50;;
76409;SDS011;65238;42.662;23.280;2023-04-08T07:23:17;28.10;;;17.55;;
76409;SDS011;65238;42.662;23.280;2023-04-08T07:25:42;27.10;;;16.60;;
76409;SDS011;65238;42.662;23.280;2023-04-08T07:28:07;27.55;;;16.55;;
76409;SDS011;65238;42.662;23.280;2023-04-08T07:30:33;26.65;;;16.48;;
76409;SDS011;65238;42.662;23.280;2023-04-08T07:32:58;22.48;;;15.60;;
76409;SDS011;65238;42.662;23.280;2023-04-08T07:35:23;26.58;;;16.50;;
76409;SDS011;65238;42.662;23.280;2023-04-08T07:37:50;37.47;;;18.35;;
76409;SDS011;65238;42.662;23.280;2023-04-08T07:40:15;29.25;;;16.77;;
76409;SDS011;65238;42.662;23.280;2023-04-08T07:42:41;26.35;;;16.05;;
76409;SDS011;65238;42.662;23.280;2023-04-08T07:45:07;26.15;;;16.70;;
76409;SDS011;65238;42.662;23.280;2023-04-08T07:47:33;28.90;;;16.02;;
76409;SDS011;65238;42.662;23.280;2023-04-08T07:49:58;30.52;;;16.85;;
76409;SDS011;65238;42.662;23.280;2023-04-08T07:52:24;26.63;;;16.52;;
76409;SDS011;65238;42.662;23.280;2023-04-08T07:54:50;27.75;;;16.40;;
76409;SDS011;65238;42.662;23.280;2023-04-08T07:57:15;24.38;;;16.13;;
76409;SDS011;65238;42.662;23.280;2023-04-08T07:59:41;23.42;;;15.00;;
76409;SDS011;65238;42.662;23.280;2023-04-08T08:02:06;27.45;;;16.15;;
76409;SDS011;65238;42.662;23.280;2023-04-08T08:04:32;30.17;;;16.58;;
76409;SDS011;65238;42.662;23.280;2023-04-08T08:06:58;26.15;;;16.02;;
76409;SDS011;65238;42.662;23.280;2023-04-08T08:09:23;27.80;;;16.02;;
76409;SDS011;65238;42.662;23.280;2023-04-08T08:11:49;31.55;;;16.00;;
76409;SDS011;65238;42.662;23.280;2023-04-08T08:14:14;24.58;;;15.93;;
76409;SDS011;65238;42.662;23.280;2023-04-08T08:16:40;27.02;;;15.50;;
76409;SDS011;65238;42.662;23.280;2023-04-08T08:19:05;30.30;;;16.48;;
76409;SDS011;65238;42.662;23.280;2023-04-08T08:21:35;26.65;;;16.83;;
76409;SDS011;65238;42.662;23.280;2023-04-08T08:24:00;24.85;;;16.80;;
76409;SDS011;65238;42.662;23.280;2023-04-08T08:26:26;25.50;;;16.10;;
76409;SDS011;65238;42.662;23.280;2023-04-08T08:28:52;31.15;;;16.23;;
76409;SDS011;65238;42.662;23.280;2023-04-08T08:31:18;29.75;;;17.73;;
76409;SDS011;65238;42.662;23.280;2023-04-08T08:33:43;30.10;;;18.83;;
76409;SDS011;65238;42.662;23.280;2023-04-08T08:36:09;30.77;;;17.52;;
76409;SDS011;65238;42.662;23.280;2023-04-08T08:38:34;26.10;;;16.35;;
76409;SDS011;65238;42.662;23.280;2023-04-08T08:41:00;27.05;;;16.40;;
76409;SDS011;65238;42.662;23.280;2023-04-08T08:43:26;25.70;;;15.88;;
76409;SDS011;65238;42.662;23.280;2023-04-08T08:45:53;26.95;;;16.33;;
76409;SDS011;65238;42.662;23.280;2023-04-08T08:48:18;28.10;;;16.08;;
76409;SDS011;65238;42.662;23.280;2023-04-08T08:50:44;29.13;;;16.33;;
76409;SDS011;65238;42.662;23.280;2023-04-08T08:53:10;28.48;;;16.60;;
76409;SDS011;65238;42.662;23.280;2023-04-08T08:55:35;28.08;;;16.95;;
76409;SDS011;65238;42.662;23.280;2023-04-08T08:58:02;32.33;;;17.73;;
76409;SDS011;65238;42.662;23.280;2023-04-08T09:00:32;25.85;;;15.88;;
76409;SDS011;65238;42.662;23.280;2023-04-08T09:05:52;25.33;;;15.80;;
76409;SDS011;65238;42.662;23.280;2023-04-08T09:10:49;31.17;;;16.48;;
76409;SDS011;65238;42.662;23.280;2023-04-08T09:13:14;27.20;;;16.38;;
76409;SDS011;65238;42.662;23.280;2023-04-08T09:15:59;26.55;;;16.05;;
76409;SDS011;65238;42.662;23.280;2023-04-08T09:18:25;25.13;;;15.63;;
76409;SDS011;65238;42.662;23.280;2023-04-08T09:20:51;24.52;;;15.77;;
76409;SDS011;65238;42.662;23.280;2023-04-08T09:23:17;28.80;;;16.23;;
76409;SDS011;65238;42.662;23.280;2023-04-08T09:25:43;21.98;;;14.15;;
76409;SDS011;65238;42.662;23.280;2023-04-08T09:28:18;28.58;;;16.40;;
76409;SDS011;65238;42.662;23.280;2023-04-08T09:30:44;28.70;;;17.40;;
76409;SDS011;65238;42.662;23.280;2023-04-08T09:33:10;28.50;;;16.83;;
76409;SDS011;65238;42.662;23.280;2023-04-08T09:35:36;29.58;;;17.38;;
76409;SDS011;65238;42.662;23.280;2023-04-08T09:38:02;27.40;;;16.45;;
76409;SDS011;65238;42.662;23.280;2023-04-08T09:40:27;23.38;;;15.98;;
76409;SDS011;65238;42.662;23.280;2023-04-08T09:42:53;28.27;;;16.65;;
76409;SDS011;65238;42.662;23.280;2023-04-08T09:45:20;28.65;;;16.05;;
76409;SDS011;65238;42.662;23.280;2023-04-08T09:50:23;21.13;;;13.65;;
76409;SDS011;65238;42.662;23.280;2023-04-08T09:52:52;18.25;;;11.65;;
76409;SDS011;65238;42.662;23.280;2023-04-08T09:55:23;20.55;;;11.15;;
76409;SDS011;65238;42.662;23.280;2023-04-08T09:58:03;17.42;;;11.35;;
76409;SDS011;65238;42.662;23.280;2023-04-08T10:00:39;16.50;;;10.35;;
76409;SDS011;65238;42.662;23.280;2023-04-08T10:05:53;19.80;;;12.70;;
76409;SDS011;65238;42.662;23.280;2023-04-08T10:08:21;25.23;;;14.13;;
76409;SDS011;65238;42.662;23.280;2023-04-08T10:10:47;31.33;;;17.05;;
76409;SDS011;65238;42.662;23.280;2023-04-08T10:13:13;29.33;;;15.10;;
76409;SDS011;65238;42.662;23.280;2023-04-08T10:15:39;21.50;;;14.18;;
76409;SDS011;65238;42.662;23.280;2023-04-08T10:25:39;25.70;;;15.88;;
76409;SDS011;65238;42.662;23.280;2023-04-08T10:30:45;25.85;;;15.85;;
76409;SDS011;65238;42.662;23.280;2023-04-08T10:33:15;28.35;;;16.60;;
76409;SDS011;65238;42.662;23.280;2023-04-08T10:35:53;24.90;;;14.77;;
76409;SDS011;65238;42.662;23.280;2023-04-08T10:38:26;26.30;;;15.57;;
76409;SDS011;65238;42.662;23.280;2023-04-08T10:40:52;25.75;;;16.30;;
76409;SDS011;65238;42.662;23.280;2023-04-08T10:43:18;20.85;;;14.50;;
76409;SDS011;65238;42.662;23.280;2023-04-08T10:45:44;28.98;;;15.43;;
76409;SDS011;65238;42.662;23.280;2023-04-08T10:50:42;24.90;;;14.20;;
76409;SDS011;65238;42.662;23.280;2023-04-08T10:53:09;25.70;;;13.82;;
76409;SDS011;65238;42.662;23.280;2023-04-08T10:55:35;20.52;;;13.45;;
76409;SDS011;65238;42.662;23.280;2023-04-08T10:58:04;22.85;;;13.88;;
76409;SDS011;65238;42.662;23.280;2023-04-08T11:00:37;23.40;;;14.27;;
76409;SDS011;65238;42.662;23.280;2023-04-08T11:03:07;21.58;;;12.77;;
76409;SDS011;65238;42.662;23.280;2023-04-08T11:05:34;25.70;;;13.52;;
76409;SDS011;65238;42.662;23.280;2023-04-08T11:08:01;22.25;;;13.18;;
76409;SDS011;65238;42.662;23.280;2023-04-08T11:10:27;27.77;;;14.30;;
76409;SDS011;65238;42.662;23.280;2023-04-08T11:12:53;23.38;;;13.85;;
76409;SDS011;65238;42.662;23.280;2023-04-08T11:15:20;27.52;;;14.50;;
76409;SDS011;65238;42.662;23.280;2023-04-08T11:17:48;26.98;;;14.13;;
76409;SDS011;65238;42.662;23.280;2023-04-08T11:20:14;26.70;;;15.43;;
76409;SDS011;65238;42.662;23.280;2023-04-08T11:22:40;26.48;;;15.15;;
76409;SDS011;65238;42.662;23.280;2023-04-08T11:25:06;24.13;;;13.82;;
76409;SDS011;65238;42.662;23.280;2023-04-08T11:27:34;21.50;;;13.63;;
76409;SDS011;65238;42.662;23.280;2023-04-08T11:29:59;21.67;;;12.98;;
76409;SDS011;65238;42.662;23.280;2023-04-08T11:32:26;20.40;;;13.05;;
76409;SDS011;65238;42.662;23.280;2023-04-08T11:34:52;20.50;;;12.88;;
76409;SDS011;65238;42.662;23.280;2023-04-08T11:37:18;22.90;;;13.63;;
76409;SDS011;65238;42.662;23.280;2023-04-08T11:39:44;23.02;;;13.27;;
76409;SDS011;65238;42.662;23.280;2023-04-08T11:42:29;19.20;;;11.57;;
76409;SDS011;65238;42.662;23.280;2023-04-08T11:45:01;18.95;;;10.77;;
76409;SDS011;65238;42.662;23.280;2023-04-08T11:47:30;16.15;;;10.40;;
76409;SDS011;65238;42.662;23.280;2023-04-08T11:49:57;13.07;;;8.80;;
76409;SDS011;65238;42.662;23.280;2023-04-08T11:52:39;22.65;;;9.15;;
76409;SDS011;65238;42.662;23.280;2023-04-08T11:55:08;13.65;;;8.57;;
76409;SDS011;65238;42.662;23.280;2023-04-08T11:57:37;15.55;;;10.13;;
76409;SDS011;65238;42.662;23.280;2023-04-08T12:00:06;19.55;;;10.38;;
76409;SDS011;65238;42.662;23.280;2023-04-08T12:02:32;12.80;;;7.97;;
76409;SDS011;65238;42.662;23.280;2023-04-08T12:04:57;15.10;;;9.55;;
76409;SDS011;65238;42.662;23.280;2023-04-08T12:07:23;14.30;;;9.82;;
76409;SDS011;65238;42.662;23.280;2023-04-08T12:09:48;19.13;;;10.70;;
76409;SDS011;65238;42.662;23.280;2023-04-08T12:12:13;21.02;;;11.50;;
76409;SDS011;65238;42.662;23.280;2023-04-08T12:14:39;16.48;;;9.75;;
76409;SDS011;65238;42.662;23.280;2023-04-08T12:17:04;14.18;;;9.32;;
76409;SDS011;65238;42.662;23.280;2023-04-08T12:19:30;17.05;;;9.80;;
76409;SDS011;65238;42.662;23.280;2023-04-08T12:21:55;18.40;;;10.45;;
76409;SDS011;65238;42.662;23.280;2023-04-08T12:24:20;14.05;;;9.30;;
76409;SDS011;65238;42.662;23.280;2023-04-08T12:26:46;18.73;;;9.88;;
76409;SDS011;65238;42.662;23.280;2023-04-08T12:29:11;16.38;;;10.55;;
76409;SDS011;65238;42.662;23.280;2023-04-08T12:31:37;17.08;;;11.00;;
76409;SDS011;65238;42.662;23.280;2023-04-08T12:34:02;19.23;;;11.73;;
76409;SDS011;65238;42.662;23.280;2023-04-08T12:36:28;18.02;;;11.18;;
76409;SDS011;65238;42.662;23.280;2023-04-08T12:38:53;22.80;;;10.35;;
76409;SDS011;65238;42.662;23.280;2023-04-08T12:41:18;14.07;;;9.00;;
76409;SDS011;65238;42.662;23.280;2023-04-08T12:43:44;13.00;;;8.95;;
76409;SDS011;65238;42.662;23.280;2023-04-08T12:46:09;14.63;;;9.38;;
76409;SDS011;65238;42.662;23.280;2023-04-08T12:48:35;13.25;;;9.02;;
76409;SDS011;65238;42.662;23.280;2023-04-08T12:51:00;22.63;;;10.10;;
76409;SDS011;65238;42.662;23.280;2023-04-08T12:53:26;13.88;;;7.63;;
76409;SDS011;65238;42.662;23.280;2023-04-08T12:55:54;11.18;;;7.85;;
76409;SDS011;65238;42.662;23.280;2023-04-08T12:58:23;14.27;;;8.53;;
76409;SDS011;65238;42.662;23.280;2023-04-08T13:00:49;11.20;;;7.95;;
76409;SDS011;65238;42.662;23.280;2023-04-08T13:03:15;11.30;;;7.57;;
76409;SDS011;65238;42.662;23.280;2023-04-08T13:05:41;15.98;;;9.05;;
76409;SDS011;65238;42.662;23.280;2023-04-08T13:08:07;10.90;;;8.52;;
76409;SDS011;65238;42.662;23.280;2023-04-08T13:10:33;15.75;;;9.25;;
76409;SDS011;65238;42.662;23.280;2023-04-08T13:12:58;14.00;;;9.35;;
76409;SDS011;65238;42.662;23.280;2023-04-08T13:15:23;17.00;;;9.57;;
76409;SDS011;65238;42.662;23.280;2023-04-08T13:17:49;21.10;;;13.80;;
76409;SDS011;65238;42.662;23.280;2023-04-08T13:20:15;21.63;;;10.18;;
76409;SDS011;65238;42.662;23.280;2023-04-08T13:22:40;16.13;;;9.73;;
76409;SDS011;65238;42.662;23.280;2023-04-08T13:25:06;13.90;;;10.00;;
76409;SDS011;65238;42.662;23.280;2023-04-08T13:27:31;14.05;;;9.70;;
76409;SDS011;65238;42.662;23.280;2023-04-08T13:29:57;14.55;;;10.55;;
76409;SDS011;65238;42.662;23.280;2023-04-08T13:32:22;16.65;;;10.15;;
76409;SDS011;65238;42.662;23.280;2023-04-08T13:34:48;14.23;;;9.70;;
76409;SDS011;65238;42.662;23.280;2023-04-08T13:37:13;15.13;;;9.48;;
76409;SDS011;65238;42.662;23.280;2023-04-08T13:39:39;14.30;;;9.65;;
76409;SDS011;65238;42.662;23.280;2023-04-08T13:42:04;13.25;;;9.50;;
76409;SDS011;65238;42.662;23.280;2023-04-08T13:44:30;13.00;;;9.32;;
76409;SDS011;65238;42.662;23.280;2023-04-08T13:46:57;13.45;;;9.20;;
76409;SDS011;65238;42.662;23.280;2023-04-08T13:49:23;13.10;;;9.38;;
76409;SDS011;65238;42.662;23.280;2023-04-08T13:51:48;16.13;;;9.88;;
76409;SDS011;65238;42.662;23.280;2023-04-08T13:54:13;17.92;;;10.07;;
76409;SDS011;65238;42.662;23.280;2023-04-08T13:56:39;13.93;;;9.70;;
76409;SDS011;65238;42.662;23.280;2023-04-08T13:59:04;12.20;;;8.95;;
76409;SDS011;65238;42.662;23.280;2023-04-08T14:01:30;19.42;;;11.32;;
76409;SDS011;65238;42.662;23.280;2023-04-08T14:03:55;16.70;;;9.80;;
76409;SDS011;65238;42.662;23.280;2023-04-08T14:06:21;12.93;;;8.90;;
76409;SDS011;65238;42.662;23.280;2023-04-08T14:08:46;14.57;;;8.98;;
76409;SDS011;65238;42.662;23.280;2023-04-08T14:11:12;12.52;;;8.40;;
76409;SDS011;65238;42.662;23.280;2023-04-08T14:13:37;16.20;;;8.52;;
76409;SDS011;65238;42.662;23.280;2023-04-08T14:16:02;12.38;;;7.80;;
76409;SDS011;65238;42.662;23.280;2023-04-08T14:18:28;13.70;;;8.77;;
76409;SDS011;65238;42.662;23.280;2023-04-08T14:20:53;13.73;;;9.43;;
76409;SDS011;65238;42.662;23.280;2023-04-08T14:23:19;12.45;;;9.65;;
76409;SDS011;65238;42.662;23.280;2023-04-08T14:25:45;14.98;;;9.85;;
76409;SDS011;65238;42.662;23.280;2023-04-08T14:28:10;14.30;;;9.60;;
76409;SDS011;65238;42.662;23.280;2023-04-08T14:30:36;14.07;;;9.80;;
76409;SDS011;65238;42.662;23.280;2023-04-08T14:33:02;15.35;;;10.43;;